首页
METAR-TAF:

METAR-TAF

机场 :

約翰·甘迺迪國際機場

纽约 / JFK, 紐約州, 美国

纬度: 40-38-19N, 经度: 073-45-44W, 海拔: 3米

当前天气观测

该预报发布于49分钟前的05:51 UTC
风速5节,风向
温度 21°C
湿度 100%
气压 1011 hPa
能見度: 16.1公里
阴天层高于17000英尺

METAR: KJFK 250551Z 17005KT 10SM OVC170 21/21 A2984 RMK AO2 SLP104 T02110211 10222 20211 58004 $

时间: 02:40 (06:40 UTC)

预报

该预报发布于1小时和13分钟前的05:27 UTC
预报有效从25日的 06点(UTC)到 26日的 12点(UTC)
风速5节,风向南转南东
能見度: 10公里
少量云层高于2000英尺
多云层高于8000英尺
从 25日的 0800点(UTC)
风速8节,风向南转南东
能見度: 6.4公里
散云层高于900英尺
阴天层高于1500英尺
小阵雨, 轻雾
短暂存在
从 25日的 11点(UTC)到 25日的 15点(UTC)
能見度: 3.2公里
多云层高于900英尺
阴天层高于1500英尺
阵雨, 轻雾
从 25日的 1600点(UTC)
风速9节,风向
能見度: 10公里
多云层高于2500英尺
阴天层高于4000英尺
附近有阵雨
从 25日的 1900点(UTC)
风速9节,风向南转西南
能見度: 10公里
多云层高于4000英尺
从 25日的 2300点(UTC)
风速9节,风向西转西北
能見度: 10公里
多云层高于5000英尺
从 26日的 0200点(UTC)
风速7节,风向北转西北
能見度: 10公里
散云层高于5000英尺

TAF: KJFK 250527Z 2506/2612 16005KT P6SM FEW020 BKN080 FM250800 15008KT 4SM -SHRA BR SCT009 OVC015 TEMPO 2511/2515 2SM SHRA BR BKN009 OVC015 FM251600 19009KT P6SM VCSH BKN025 OVC040 FM251900 21009KT P6SM BKN040 FM252300 29009KT P6SM BKN050 FM260200 33007KT P6SM SCT050

超过4000个机场的气象观测和天气预报(METAR&TAF报告)。

可查询的气象台以黄色和红色小点在地图上表示。

将鼠标移到小点上方,可查看气象台名称。

然后点击查看天气观测和预报。

如需切换地图:点击带黑十字的绿色按钮放大地图;点击带横线的绿色按钮缩小地图;或者点击绿色箭头查看邻近地区的地图。


METAR-TAF: